Airfield :
LOGIN :

Register | Disclaimer

   EN    FR    IT 

 










Legend :    VFR   Marginal VFR   IFR   Intensive IFR   Very Intensive IFR
Visi :
Ceiling :
>= 8 km
>= 3000ft
5 to 8 km
1000 to 3000 ft
1500m to 5 km
500 to 1000 ft
800 to 1500m
200 to 500 ft
< 800m
< 200 ft
Symbols :   Thunderstorms  Fog  Heavy snow  Heavy precipitations  Wind > 20 kt
SIGMETs :     Misc.  Thunderstorms  Icing  Turbulence  Mountain Waves  Volcanic Ashes






- Airport Elevation : -15 ft
- IATA code : RTM


EHRD - Rotterdam Zestienhoven

CURRENT METAR :
  • 271455Z AUTO 27007KT 230V320 9999 SCT042 18/09 Q1016 NOSIG

EXPIRED METARs :
  • 271425Z AUTO 28007KT 220V330 9999 FEW047 18/08 Q1016 NOSIG
  • 271355Z AUTO 29008KT 230V340 9999 SCT043 17/08 Q1016 NOSIG
  • 271325Z AUTO 26009KT 220V290 9999 FEW047/// 18/08 Q1016 NOSIG
  • 271255Z AUTO 23010KT 190V270 9999 SCT047/// 19/07 Q1016 NOSIG
  • 271225Z AUTO 24011KT 180V290 9999 FEW040/// 18/07 Q1016 NOSIG
  • 271155Z AUTO 26008KT 220V300 9999 FEW033/// SCT041/// BKN047/// 16/10 Q1016 NOSIG
  • 271125Z AUTO 23009KT 180V260 9999 FEW037/// SCT047/// 17/09 Q1016 NOSIG
  • 271055Z AUTO 22012KT 170V260 9999 BKN035/// BKN041/// 17/09 Q1017 NOSIG
  • 271025Z AUTO 23012KT 190V270 9999 FEW036 17/09 Q1016 NOSIG

TAF TAF EHRD
Valid from the 27 at 12:00 until the 28 at 18:00 UTC


271108Z 2712/2818 25012KT 9999 SCT030
BECMG 2718/2721 21010KT
PROB30
TEMPO 2803/2807 BKN009
TEMPO 2808/2813 7000 -RA -SHRA FEW015TCU BKN017
BECMG 2813/2815 -RA BKN013
BECMG 2815/2818 6000 RA BKN007



MET'MAP, your aeronautical weather chart ! - Copyright ORBIFLY December 2007 - Disclaimer

ORBIFLY MET'MAP TEAM :

Programming & Development : Alexandra Zaïnal
Original concept : Baudouin d'Aumeries
Technical & hardware support : Manuel Goepfert
Assistance : Marc-Olivier Méhu




SOURCES & CREDITS :

   NOAA